createdAt,value
2017-04-28T00:00:59.540Z,3.50
2017-04-28T00:03:26.578Z,3.94
2017-04-28T00:05:53.911Z,3.34
2017-04-28T00:08:20.966Z,3.92
2017-04-28T00:10:47.983Z,3.32
2017-04-28T00:13:15.005Z,3.34
2017-04-28T00:15:42.804Z,3.84
2017-04-28T00:18:09.873Z,4.28
2017-04-28T00:20:36.938Z,3.52
2017-04-28T00:23:04.734Z,3.82
2017-04-28T00:25:31.779Z,3.68
2017-04-28T00:27:59.314Z,3.72
2017-04-28T00:30:27.089Z,3.66
2017-04-28T00:32:54.863Z,3.42
2017-04-28T00:35:22.308Z,3.12
2017-04-28T00:37:50.044Z,3.80
2017-04-28T00:40:17.080Z,3.56
2017-04-28T00:42:44.155Z,3.60
2017-04-28T00:45:11.195Z,3.18
2017-04-28T00:47:38.558Z,3.50
2017-04-28T00:50:05.568Z,3.84
2017-04-28T00:52:32.594Z,3.40
2017-04-28T00:54:59.628Z,2.96
2017-04-28T00:57:26.686Z,3.22
2017-04-28T00:59:53.844Z,3.22
2017-04-28T01:02:20.884Z,3.16
2017-04-28T01:04:48.307Z,3.22
2017-04-28T01:07:16.199Z,3.40
2017-04-28T01:09:43.269Z,3.66
2017-04-28T01:12:10.811Z,3.32
2017-04-28T01:14:37.828Z,3.50
2017-04-28T01:17:04.983Z,3.04
2017-04-28T01:19:32.020Z,3.42
2017-04-28T01:21:59.065Z,3.10
2017-04-28T01:24:26.857Z,3.62
2017-04-28T01:26:54.958Z,3.06
2017-04-28T01:29:22.061Z,4.06
2017-04-28T01:31:49.818Z,3.78
2017-04-28T01:34:16.845Z,3.50
2017-04-28T01:36:44.155Z,3.26
2017-04-28T01:39:12.273Z,3.52
2017-04-28T01:41:39.313Z,3.72
2017-04-28T01:44:06.343Z,3.08
2017-04-28T01:46:33.385Z,3.84
2017-04-28T01:49:00.442Z,3.48
2017-04-28T01:51:27.532Z,3.90
2017-04-28T01:53:54.564Z,3.50
2017-04-28T01:56:21.957Z,3.42
2017-04-28T01:58:49.002Z,3.54
2017-04-28T02:01:16.148Z,3.62
2017-04-28T02:03:44.012Z,3.22
2017-04-28T02:06:11.781Z,4.08
2017-04-28T02:08:39.322Z,2.92
2017-04-28T02:11:06.337Z,3.14
2017-04-28T02:13:33.662Z,3.28
2017-04-28T02:16:00.686Z,3.80
2017-04-28T02:18:27.714Z,2.84
2017-04-28T02:20:54.795Z,3.78
2017-04-28T02:23:21.944Z,3.66
2017-04-28T02:25:49.759Z,3.60
2017-04-28T02:28:16.817Z,3.78
2017-04-28T02:30:44.175Z,3.88
2017-04-28T02:33:11.189Z,3.62
2017-04-28T02:35:38.206Z,3.66
2017-04-28T02:38:06.001Z,3.64
2017-04-28T02:40:33.029Z,3.84
2017-04-28T02:43:01.085Z,3.82
2017-04-28T02:45:28.084Z,3.58
2017-04-28T02:47:55.176Z,3.40
2017-04-28T02:50:22.216Z,3.64
2017-04-28T02:52:49.257Z,3.90
2017-04-28T02:55:16.345Z,3.54
2017-04-28T02:57:43.405Z,4.00
2017-04-28T03:00:10.837Z,3.78
2017-04-28T03:02:37.875Z,4.12
2017-04-28T03:05:04.902Z,4.58
2017-04-28T03:07:31.937Z,4.16
2017-04-28T03:09:58.993Z,3.30
2017-04-28T03:12:26.049Z,3.56
2017-04-28T03:14:53.115Z,3.68
2017-04-28T03:17:21.206Z,3.84
2017-04-28T03:19:48.338Z,4.14
2017-04-28T03:22:15.349Z,4.14
2017-04-28T03:24:42.368Z,4.02
2017-04-28T03:27:09.419Z,4.36
2017-04-28T03:29:36.503Z,4.92
2017-04-28T03:32:03.546Z,4.18
2017-04-28T03:34:30.888Z,5.38
2017-04-28T03:36:57.937Z,3.90
2017-04-28T03:39:24.968Z,4.00
2017-04-28T03:41:52.008Z,3.96
2017-04-28T03:44:19.053Z,4.30
2017-04-28T03:46:46.068Z,4.82
2017-04-28T03:49:14.217Z,3.80
2017-04-28T03:51:41.545Z,5.08
2017-04-28T03:54:08.848Z,5.98
2017-04-28T03:56:35.984Z,4.92
2017-04-28T03:59:03.040Z,4.90
2017-04-28T04:01:30.410Z,5.64
2017-04-28T04:03:58.186Z,4.52
2017-04-28T04:06:25.255Z,5.36
2017-04-28T04:08:52.405Z,5.28
2017-04-28T04:11:20.247Z,5.30
2017-04-28T04:13:47.672Z,5.54
2017-04-28T04:16:15.492Z,4.50
2017-04-28T04:18:42.597Z,5.02
2017-04-28T04:21:09.681Z,4.78
2017-04-28T04:23:36.735Z,5.24
2017-04-28T04:26:04.149Z,4.92
2017-04-28T04:28:31.935Z,5.82
2017-04-28T04:30:59.688Z,5.12
2017-04-28T04:33:26.809Z,5.06
2017-04-28T04:35:53.849Z,5.30
2017-04-28T04:38:21.230Z,5.14
2017-04-28T04:40:49.036Z,5.18
2017-04-28T04:43:16.086Z,5.48
2017-04-28T04:45:43.137Z,4.56
2017-04-28T04:48:10.187Z,5.24
2017-04-28T04:50:37.600Z,5.00
2017-04-28T04:53:05.374Z,4.76
2017-04-28T04:55:32.462Z,4.94
2017-04-28T04:57:59.528Z,5.14
2017-04-28T05:00:26.607Z,5.00
2017-04-28T05:02:54.760Z,5.78
2017-04-28T05:05:21.814Z,4.46
2017-04-28T05:07:48.881Z,4.78
2017-04-28T05:10:15.997Z,4.96
2017-04-28T05:12:43.122Z,6.48
2017-04-28T05:15:10.257Z,5.52
2017-04-28T05:17:37.326Z,4.84
2017-04-28T05:20:04.655Z,5.04
2017-04-28T05:22:31.692Z,4.86
2017-04-28T05:24:58.714Z,4.68
2017-04-28T05:27:26.473Z,4.96
2017-04-28T05:29:53.528Z,6.68
2017-04-28T05:32:20.611Z,6.02
2017-04-28T05:34:47.671Z,5.86
2017-04-28T05:37:15.036Z,6.18
2017-04-28T05:39:42.136Z,5.96
2017-04-28T05:42:09.182Z,7.32
2017-04-28T05:44:36.281Z,6.86
2017-04-28T05:47:04.114Z,7.36
2017-04-28T05:49:31.166Z,5.60
2017-04-28T05:51:58.268Z,6.76
2017-04-28T05:54:25.679Z,7.16
2017-04-28T05:56:52.743Z,7.20
2017-04-28T05:59:20.549Z,7.18
2017-04-28T06:01:47.584Z,6.68
2017-04-28T06:04:14.619Z,7.48
2017-04-28T06:06:42.492Z,7.18
2017-04-28T06:09:09.529Z,6.00
2017-04-28T06:11:36.954Z,8.46
2017-04-28T06:14:04.753Z,6.52
2017-04-28T06:16:31.854Z,8.10
2017-04-28T06:18:58.935Z,7.48
2017-04-28T06:21:26.069Z,9.60
2017-04-28T06:23:53.865Z,9.38
2017-04-28T06:26:20.970Z,8.60
2017-04-28T06:28:48.369Z,8.18
2017-04-28T06:31:15.436Z,8.56
2017-04-28T06:33:42.565Z,7.70
2017-04-28T06:36:09.637Z,8.60
2017-04-28T06:38:36.720Z,7.86
2017-04-28T06:41:04.568Z,7.98
2017-04-28T06:43:31.663Z,7.20
2017-04-28T06:45:59.127Z,8.30
2017-04-28T06:48:26.229Z,7.56
2017-04-28T06:50:53.279Z,8.08
2017-04-28T06:53:20.363Z,7.22
2017-04-28T06:55:48.194Z,8.20
2017-04-28T06:58:15.239Z,9.22
2017-04-28T07:00:42.301Z,8.88
2017-04-28T07:03:10.283Z,7.28
2017-04-28T07:05:38.470Z,7.98
2017-04-28T07:08:06.268Z,8.80
2017-04-28T07:10:33.313Z,9.00
2017-04-28T07:13:00.384Z,7.16
2017-04-28T07:15:28.265Z,8.56
2017-04-28T07:17:55.325Z,7.02
2017-04-28T07:20:22.346Z,7.92
2017-04-28T07:22:49.736Z,7.26
2017-04-28T07:25:16.761Z,8.14
2017-04-28T07:27:43.828Z,6.98
2017-04-28T07:30:11.673Z,7.96
2017-04-28T07:32:38.712Z,8.12
2017-04-28T07:35:05.793Z,7.12
2017-04-28T07:37:33.604Z,7.68
2017-04-28T07:40:01.005Z,7.10
2017-04-28T07:42:28.046Z,7.08
2017-04-28T07:44:55.095Z,6.84
2017-04-28T07:47:22.166Z,7.44
2017-04-28T07:49:49.972Z,7.12
2017-04-28T07:52:17.002Z,6.80
2017-04-28T07:54:51.145Z,7.40
2017-04-28T07:57:18.534Z,7.68
2017-04-28T07:59:46.392Z,7.38
2017-04-28T08:02:13.474Z,7.92
2017-04-28T08:04:41.273Z,8.10
2017-04-28T08:07:08.321Z,8.20
2017-04-28T08:09:35.390Z,8.98
2017-04-28T08:12:02.469Z,8.42
2017-04-28T08:14:29.804Z,8.56
2017-04-28T08:16:56.832Z,8.28
2017-04-28T08:19:24.020Z,8.04
2017-04-28T08:21:51.845Z,7.50
2017-04-28T08:24:18.899Z,8.76
2017-04-28T08:26:45.956Z,7.54
2017-04-28T08:29:13.050Z,7.30
2017-04-28T08:31:40.496Z,8.40
2017-04-28T08:34:07.577Z,7.68
2017-04-28T08:36:34.645Z,8.32
2017-04-28T08:39:01.720Z,8.78
2017-04-28T08:41:28.756Z,8.44
2017-04-28T08:43:55.840Z,7.40
2017-04-28T08:46:22.899Z,8.12
2017-04-28T08:48:50.301Z,6.82
2017-04-28T08:51:18.082Z,7.16
2017-04-28T08:53:45.150Z,7.98
2017-04-28T08:56:12.232Z,7.98
2017-04-28T08:58:39.304Z,7.54
2017-04-28T09:01:06.412Z,7.16
2017-04-28T09:03:33.485Z,6.96
2017-04-28T09:06:00.849Z,7.64
2017-04-28T09:08:27.901Z,7.32
2017-04-28T09:10:55.737Z,7.00
2017-04-28T09:13:22.812Z,7.34
2017-04-28T09:15:49.861Z,7.62
2017-04-28T09:18:16.967Z,6.92
2017-04-28T09:20:44.052Z,7.34
2017-04-28T09:23:11.366Z,7.12
2017-04-28T09:25:38.429Z,6.50
2017-04-28T09:28:05.514Z,6.86
2017-04-28T09:30:32.616Z,7.08
2017-04-28T09:32:59.661Z,6.46
2017-04-28T09:35:26.703Z,6.30
2017-04-28T09:37:53.783Z,6.20
2017-04-28T09:40:21.192Z,7.30
2017-04-28T09:42:48.266Z,7.28
2017-04-28T09:45:15.363Z,8.00
2017-04-28T09:47:42.872Z,6.74
2017-04-28T09:50:09.941Z,6.26
2017-04-28T09:52:37.755Z,7.30
2017-04-28T09:55:04.842Z,7.50
2017-04-28T09:57:32.195Z,7.64
2017-04-28T10:00:00.016Z,6.46
2017-04-28T10:02:27.098Z,6.62
2017-04-28T10:04:54.150Z,6.92
2017-04-28T10:07:21.210Z,6.52
2017-04-28T10:09:49.025Z,6.44
2017-04-28T10:12:16.067Z,6.16
2017-04-28T10:14:43.148Z,5.56
2017-04-28T10:17:10.244Z,6.32
2017-04-28T10:19:37.310Z,6.68
2017-04-28T10:22:04.404Z,7.20
2017-04-28T10:24:32.385Z,7.38
2017-04-28T10:26:59.468Z,7.14
2017-04-28T10:29:26.900Z,6.32
2017-04-28T10:31:54.692Z,7.06
2017-04-28T10:34:21.753Z,7.24
2017-04-28T10:36:48.795Z,7.26
2017-04-28T10:39:15.888Z,7.08
2017-04-28T10:41:43.021Z,6.80
2017-04-28T10:44:10.057Z,6.82
2017-04-28T10:46:37.464Z,6.70
2017-04-28T10:49:04.712Z,6.82
2017-04-28T10:51:32.492Z,7.08
2017-04-28T10:53:59.560Z,6.92
2017-04-28T10:56:26.610Z,6.88
2017-04-28T10:58:54.477Z,6.48
2017-04-28T11:03:21.576Z,6.68
2017-04-28T11:05:48.594Z,7.34
2017-04-28T11:08:15.635Z,6.92
2017-04-28T11:10:42.681Z,7.52
2017-04-28T11:13:09.775Z,6.36
2017-04-28T11:15:37.581Z,6.26
2017-04-28T11:18:04.602Z,5.94
2017-04-28T11:20:32.048Z,6.02
2017-04-28T11:22:59.865Z,6.34
2017-04-28T11:25:26.922Z,6.02
2017-04-28T11:27:53.941Z,5.52
2017-04-28T11:30:20.985Z,5.86
2017-04-28T11:32:48.075Z,5.68
2017-04-28T11:35:15.505Z,4.94
2017-04-28T11:37:42.912Z,4.64
2017-04-28T11:40:09.992Z,6.24
2017-04-28T11:42:37.012Z,6.80
2017-04-28T11:45:04.813Z,6.24
2017-04-28T11:47:31.867Z,5.28
2017-04-28T11:49:59.530Z,4.94
2017-04-28T11:52:26.577Z,5.76
2017-04-28T11:54:53.912Z,6.10
2017-04-28T11:57:20.981Z,6.22
2017-04-28T11:59:48.071Z,6.22
2017-04-28T12:02:15.144Z,6.46
2017-04-28T12:04:42.191Z,5.88
2017-04-28T12:07:09.248Z,5.80
2017-04-28T12:09:36.298Z,5.60
2017-04-28T12:12:03.704Z,5.46
2017-04-28T12:14:31.477Z,5.20
2017-04-28T12:16:58.517Z,4.28
2017-04-28T12:19:26.285Z,4.76
2017-04-28T12:21:53.470Z,4.32
2017-04-28T12:24:20.517Z,4.96
2017-04-28T12:26:47.552Z,5.76
2017-04-28T12:29:14.975Z,4.76
2017-04-28T12:31:42.283Z,4.90
2017-04-28T12:34:09.353Z,4.82
2017-04-28T12:36:36.413Z,4.92
2017-04-28T12:39:04.206Z,5.00
2017-04-28T12:41:31.411Z,5.14
2017-04-28T12:43:58.462Z,4.50
2017-04-28T12:46:26.900Z,5.12
2017-04-28T12:48:53.993Z,4.98
2017-04-28T12:51:21.029Z,6.12
2017-04-28T12:53:48.585Z,6.66
2017-04-28T12:56:15.655Z,6.86
2017-04-28T12:58:42.689Z,6.82
2017-04-28T13:01:09.776Z,6.92
2017-04-28T13:03:36.837Z,5.92
2017-04-28T13:06:04.531Z,7.32
2017-04-28T13:08:32.313Z,7.22
2017-04-28T13:10:59.385Z,6.80
2017-04-28T13:13:26.438Z,6.52
2017-04-28T13:15:53.516Z,6.70
2017-04-28T13:18:21.334Z,6.22
2017-04-28T13:20:48.400Z,6.82
2017-04-28T13:23:15.527Z,6.04
2017-04-28T13:25:42.621Z,6.14
2017-04-28T13:28:09.994Z,6.84
2017-04-28T13:30:37.860Z,6.56
2017-04-28T13:33:04.926Z,6.34
2017-04-28T13:35:32.027Z,6.06
2017-04-28T13:37:59.103Z,7.32
2017-04-28T13:40:26.168Z,7.06
2017-04-28T13:42:53.237Z,7.14
2017-04-28T13:45:20.617Z,7.02
2017-04-28T13:47:47.697Z,5.94
2017-04-28T13:50:14.773Z,6.10
2017-04-28T13:52:41.841Z,6.86
2017-04-28T13:55:08.893Z,6.38
2017-04-28T13:57:35.967Z,5.40
2017-04-28T14:00:03.030Z,5.46
2017-04-28T14:02:30.473Z,5.92
2017-04-28T14:04:58.272Z,6.00
2017-04-28T14:07:25.341Z,6.46
2017-04-28T14:09:52.520Z,5.48
2017-04-28T14:12:19.586Z,6.04
2017-04-28T14:14:46.657Z,5.68
2017-04-28T14:17:13.869Z,5.52
2017-04-28T14:19:42.116Z,5.16
2017-04-28T14:22:09.192Z,5.70
2017-04-28T14:24:36.940Z,6.08
2017-04-28T14:27:04.189Z,5.66
2017-04-28T14:29:31.280Z,6.82
2017-04-28T14:31:58.337Z,6.34
2017-04-28T14:34:25.398Z,6.28
2017-04-28T14:36:52.792Z,6.00
2017-04-28T14:39:20.592Z,5.76
2017-04-28T14:41:47.648Z,6.16
2017-04-28T14:44:14.704Z,6.26
2017-04-28T14:46:41.845Z,5.74
2017-04-28T14:49:08.922Z,5.96
2017-04-28T14:51:35.978Z,5.50
2017-04-28T14:54:03.350Z,6.28
2017-04-28T14:56:31.098Z,5.16
2017-04-28T14:58:58.147Z,5.66
2017-04-28T15:01:25.229Z,5.72
2017-04-28T15:03:52.257Z,5.00
2017-04-28T15:06:19.458Z,5.50
2017-04-28T15:08:46.545Z,5.32
2017-04-28T15:11:13.889Z,5.48
2017-04-28T15:13:40.925Z,5.94
2017-04-28T15:16:08.007Z,6.38
2017-04-28T15:18:35.093Z,6.14
2017-04-28T15:21:02.129Z,5.24
2017-04-28T15:23:29.201Z,5.58
2017-04-28T15:25:56.281Z,5.36
2017-04-28T15:28:24.474Z,5.58
2017-04-28T15:30:51.520Z,5.92
2017-04-28T15:33:19.297Z,7.46
2017-04-28T15:35:46.996Z,7.32
2017-04-28T15:38:14.061Z,7.22
2017-04-28T15:40:41.073Z,6.50
2017-04-28T15:43:08.127Z,6.48
2017-04-28T15:45:35.541Z,6.08
2017-04-28T15:48:03.344Z,6.66
2017-04-28T15:50:30.375Z,7.12
2017-04-28T15:52:57.426Z,6.04
2017-04-28T15:55:24.470Z,5.18
2017-04-28T15:57:51.913Z,5.76
2017-04-28T16:00:18.984Z,5.62
2017-04-28T16:02:46.016Z,5.90
2017-04-28T16:05:13.105Z,6.44
2017-04-28T16:07:40.228Z,5.74
2017-04-28T16:10:09.273Z,6.40
2017-04-28T16:12:36.345Z,6.48
2017-04-28T16:15:03.380Z,6.22
2017-04-28T16:17:31.197Z,6.22
2017-04-28T16:19:58.258Z,6.52
2017-04-28T16:22:25.343Z,8.46
2017-04-28T16:24:53.187Z,8.48
2017-04-28T16:27:20.550Z,9.52
2017-04-28T16:29:47.584Z,8.70
2017-04-28T16:32:14.617Z,8.98
2017-04-28T16:34:41.744Z,7.56
2017-04-28T16:37:09.675Z,8.26
2017-04-28T16:39:36.840Z,7.34
2017-04-28T16:42:03.997Z,8.00
2017-04-28T16:44:31.467Z,7.36
2017-04-28T16:46:58.616Z,7.50
2017-04-28T16:49:25.768Z,6.96
2017-04-28T16:51:52.983Z,7.08
2017-04-28T16:54:20.183Z,5.50
2017-04-28T16:56:47.451Z,5.62
2017-04-28T16:59:14.669Z,4.86
2017-04-28T17:01:42.536Z,4.50
2017-04-28T17:04:09.652Z,3.90
2017-04-28T17:06:36.685Z,3.50
2017-04-28T17:09:03.799Z,4.28
2017-04-28T17:11:30.898Z,3.80
2017-04-28T17:13:57.924Z,5.00
2017-04-28T17:16:24.976Z,4.36
2017-04-28T17:18:52.041Z,3.90
2017-04-28T17:21:19.104Z,3.70
2017-04-28T17:23:47.282Z,7.98
2017-04-28T17:26:14.318Z,12.58
2017-04-28T17:28:42.129Z,12.04
2017-04-28T17:31:09.187Z,12.20
2017-04-28T17:33:36.245Z,11.50
2017-04-28T17:36:03.278Z,12.62
2017-04-28T17:38:30.347Z,13.38
2017-04-28T17:40:57.741Z,12.62
2017-04-28T17:43:24.782Z,12.66
2017-04-28T17:45:52.601Z,11.60
2017-04-28T17:48:19.648Z,12.42
2017-04-28T17:50:46.697Z,12.42
2017-04-28T17:53:13.741Z,11.76
2017-04-28T17:55:40.787Z,12.36
2017-04-28T17:58:07.990Z,12.26
2017-04-28T18:00:35.875Z,11.28
2017-04-28T18:03:03.320Z,10.96
2017-04-28T18:05:30.329Z,11.52
2017-04-28T18:07:57.433Z,9.80
2017-04-28T18:10:24.500Z,9.90
2017-04-28T18:12:51.520Z,10.12
2017-04-28T18:15:19.296Z,10.08
2017-04-28T18:17:46.366Z,10.44
2017-04-28T18:20:14.599Z,11.00
2017-04-28T18:22:41.675Z,10.50
2017-04-28T18:25:08.691Z,10.98
2017-04-28T18:27:35.750Z,11.50
2017-04-28T18:30:02.830Z,11.70
2017-04-28T18:32:29.877Z,11.48
2017-04-28T18:34:56.896Z,11.30
2017-04-28T18:37:24.720Z,12.40
2017-04-28T18:39:51.795Z,12.86
2017-04-28T18:42:19.359Z,12.82
2017-04-28T18:44:47.182Z,11.68
2017-04-28T18:47:14.256Z,13.40
2017-04-28T18:49:41.323Z,14.30
2017-04-28T18:52:09.112Z,13.38
2017-04-28T18:54:36.184Z,13.78
2017-04-28T18:57:03.223Z,13.10
2017-04-28T18:59:30.297Z,15.08
2017-04-28T19:01:57.330Z,13.72
2017-04-28T19:04:25.249Z,13.38
2017-04-28T19:06:52.405Z,14.44
2017-04-28T19:09:19.531Z,14.50
2017-04-28T19:11:46.601Z,15.74
2017-04-28T19:14:13.641Z,14.04
2017-04-28T19:16:41.000Z,14.06
2017-04-28T19:19:08.779Z,14.86
2017-04-28T19:21:36.583Z,14.28
2017-04-28T19:24:03.712Z,15.48
2017-04-28T19:26:30.784Z,15.56
2017-04-28T19:28:57.864Z,16.58
2017-04-28T19:31:24.932Z,15.62
2017-04-28T19:33:52.280Z,14.96
2017-04-28T19:36:20.061Z,14.48
2017-04-28T19:38:47.085Z,15.92
2017-04-28T19:41:14.154Z,15.78
2017-04-28T19:43:41.216Z,14.22
2017-04-28T19:46:08.645Z,16.14
2017-04-28T19:48:36.450Z,16.70
2017-04-28T19:51:03.484Z,16.90
2017-04-28T19:53:30.607Z,16.52
2017-04-28T19:55:58.422Z,16.88
2017-04-28T19:58:25.471Z,16.42
2017-04-28T20:00:52.521Z,15.22
2017-04-28T20:03:19.980Z,16.36
2017-04-28T20:05:47.021Z,13.84
2017-04-28T20:08:14.056Z,16.96
2017-04-28T20:10:41.194Z,15.28
2017-04-28T20:13:08.260Z,14.40
2017-04-28T20:15:35.310Z,15.94
2017-04-28T20:18:02.342Z,15.78
2017-04-28T20:20:30.318Z,16.26
2017-04-28T20:22:58.253Z,15.92
2017-04-28T20:25:25.593Z,15.74
2017-04-28T20:27:52.635Z,17.76
2017-04-28T20:30:19.682Z,17.82
2017-04-28T20:32:47.525Z,15.84
2017-04-28T20:35:14.578Z,17.48
2017-04-28T20:37:41.603Z,17.66
2017-04-28T20:40:08.641Z,19.14
2017-04-28T20:42:36.800Z,19.54
2017-04-28T20:45:03.852Z,18.24
2017-04-28T20:47:30.896Z,17.98
2017-04-28T20:49:58.703Z,17.74
2017-04-28T20:52:25.765Z,18.16
2017-04-28T20:54:52.836Z,16.12
2017-04-28T20:57:19.897Z,16.66
2017-04-28T20:59:47.264Z,17.28
2017-04-28T21:02:15.068Z,17.06
2017-04-28T21:04:42.105Z,17.26
2017-04-28T21:07:09.189Z,16.92
2017-04-28T21:09:37.086Z,14.80
2017-04-28T21:12:04.139Z,15.56
2017-04-28T21:14:31.201Z,16.14
2017-04-28T21:16:58.508Z,19.20
2017-04-28T21:19:25.537Z,16.30
2017-04-28T21:21:52.565Z,16.84
2017-04-28T21:24:19.639Z,15.68
2017-04-28T21:26:46.701Z,15.96
2017-04-28T21:29:13.767Z,16.96
2017-04-28T21:31:41.575Z,17.20
2017-04-28T21:34:08.637Z,18.16
2017-04-28T21:36:35.689Z,19.42
2017-04-28T21:39:03.098Z,18.08
2017-04-28T21:41:30.156Z,20.18
2017-04-28T21:43:57.928Z,19.48
2017-04-28T21:46:25.208Z,18.22
2017-04-28T21:48:52.237Z,17.24
2017-04-28T21:51:19.310Z,17.00
2017-04-28T21:53:46.354Z,17.78
2017-04-28T21:56:13.965Z,17.20
2017-04-28T21:58:41.065Z,20.20
2017-04-28T22:01:08.128Z,18.64
2017-04-28T22:03:35.145Z,20.60
2017-04-28T22:06:02.187Z,17.56
2017-04-28T22:08:29.301Z,17.64
2017-04-28T22:10:57.084Z,14.42
2017-04-28T22:13:25.227Z,16.60
2017-04-28T22:16:08.185Z,16.26
2017-04-28T22:18:35.265Z,14.82
2017-04-28T22:21:02.295Z,16.34
2017-04-28T22:23:29.818Z,17.12
2017-04-28T22:25:56.892Z,15.50
2017-04-28T22:28:24.666Z,15.58
2017-04-28T22:30:51.748Z,17.18
2017-04-28T22:33:18.781Z,16.36
2017-04-28T22:35:46.051Z,15.84
2017-04-28T22:38:13.108Z,15.54
2017-04-28T22:40:40.116Z,15.20
2017-04-28T22:43:07.170Z,15.38
2017-04-28T22:45:34.223Z,14.46
2017-04-28T22:48:01.772Z,16.76
2017-04-28T22:50:28.770Z,17.46
2017-04-28T22:52:55.801Z,17.52
2017-04-28T22:55:22.844Z,18.04
2017-04-28T22:57:49.881Z,19.40
2017-04-28T23:00:17.074Z,18.68
2017-04-28T23:02:44.094Z,19.22
2017-04-28T23:05:11.459Z,19.32
2017-04-28T23:07:38.584Z,19.28
2017-04-28T23:10:05.668Z,18.70
2017-04-28T23:12:32.713Z,20.86
2017-04-28T23:14:59.729Z,21.50
2017-04-28T23:17:26.793Z,21.00
2017-04-28T23:19:53.846Z,21.56
2017-04-28T23:22:21.187Z,15.14
2017-04-28T23:24:48.220Z,10.82
2017-04-28T23:27:15.237Z,8.18
2017-04-28T23:29:42.308Z,6.70
2017-04-28T23:32:09.336Z,7.04
2017-04-28T23:34:36.379Z,6.18
2017-04-28T23:37:03.389Z,6.18
2017-04-28T23:39:30.709Z,5.90
2017-04-28T23:41:57.699Z,6.86
2017-04-28T23:44:24.744Z,8.38
2017-04-28T23:46:51.800Z,9.00
2017-04-28T23:49:19.575Z,9.28
2017-04-28T23:51:46.772Z,9.38
2017-04-28T23:54:13.820Z,9.20
2017-04-28T23:56:41.233Z,11.84
2017-04-28T23:59:09.023Z,11.70
